createdAt,value
2019-03-13T00:02:15.110Z,950.4
2019-03-13T00:05:20.989Z,950.4
2019-03-13T00:08:27.136Z,950.5
2019-03-13T00:11:33.086Z,950.5
2019-03-13T00:14:39.043Z,950.4
2019-03-13T00:17:45.212Z,950.5
2019-03-13T00:20:51.168Z,950.5
2019-03-13T00:23:57.129Z,950.5
2019-03-13T00:27:03.088Z,950.5
2019-03-13T00:30:09.053Z,950.5
2019-03-13T00:33:15.011Z,950.4
2019-03-13T00:36:21.007Z,950.4
2019-03-13T00:39:27.030Z,950.3
2019-03-13T00:42:33.092Z,950.3
2019-03-13T00:45:39.255Z,950.3
2019-03-13T00:48:45.140Z,950.3
2019-03-13T00:51:51.072Z,950.4
2019-03-13T00:54:56.950Z,950.3
2019-03-13T00:58:05.860Z,950.2
2019-03-13T01:01:11.869Z,950.1
2019-03-13T01:04:17.891Z,950.1
2019-03-13T01:07:23.771Z,950
2019-03-13T01:10:29.803Z,950
2019-03-13T01:13:35.763Z,950
2019-03-13T01:16:41.753Z,950
2019-03-13T01:19:47.678Z,950
2019-03-13T01:22:53.788Z,950
2019-03-13T01:25:59.665Z,950
2019-03-13T01:29:05.659Z,950
2019-03-13T01:32:11.669Z,950.1
2019-03-13T01:35:17.678Z,950.1
2019-03-13T01:38:23.638Z,950
2019-03-13T01:41:29.600Z,950
2019-03-13T01:44:35.557Z,949.9
2019-03-13T01:47:44.792Z,949.9
2019-03-13T01:50:50.751Z,949.8
2019-03-13T01:53:56.713Z,949.9
2019-03-13T01:57:02.679Z,949.9
2019-03-13T02:00:08.671Z,949.9
2019-03-13T02:03:14.701Z,949.9
2019-03-13T02:06:20.654Z,950
2019-03-13T02:09:26.627Z,950
2019-03-13T02:12:32.630Z,950
2019-03-13T02:15:38.533Z,950
2019-03-13T02:18:44.492Z,950
2019-03-13T02:21:50.379Z,950
2019-03-13T02:24:56.412Z,950.1
2019-03-13T02:28:02.291Z,950
2019-03-13T02:31:08.188Z,950.1
2019-03-13T02:34:14.298Z,950.1
2019-03-13T02:37:20.396Z,950.1
2019-03-13T02:40:26.407Z,950.1
2019-03-13T02:43:32.474Z,950.2
2019-03-13T02:46:38.536Z,950.3
2019-03-13T02:49:44.494Z,950.3
2019-03-13T02:52:50.432Z,950.3
2019-03-13T02:55:56.641Z,950.3
2019-03-13T02:59:02.590Z,950.2
2019-03-13T03:02:08.890Z,950.3
2019-03-13T03:05:14.948Z,950.3
2019-03-13T03:08:21.108Z,950.3
2019-03-13T03:11:27.336Z,950.3
2019-03-13T03:14:33.330Z,950.3
2019-03-13T03:17:39.565Z,950.3
2019-03-13T03:20:45.543Z,950.3
2019-03-13T03:23:51.599Z,950.3
2019-03-13T03:26:57.548Z,950.4
2019-03-13T03:30:03.754Z,950.3
2019-03-13T03:33:09.974Z,950.2
2019-03-13T03:36:16.046Z,950.3
2019-03-13T03:39:21.915Z,950.4
2019-03-13T03:42:28.268Z,950.3
2019-03-13T03:45:34.270Z,950.3
2019-03-13T03:48:42.996Z,950.4
2019-03-13T03:51:49.072Z,950.4
2019-03-13T03:54:55.121Z,950.3
2019-03-13T03:58:01.173Z,950.4
2019-03-13T04:01:07.093Z,950.4
2019-03-13T04:04:13.154Z,950.5
2019-03-13T04:07:19.034Z,950.4
2019-03-13T04:10:25.173Z,950.4
2019-03-13T04:13:31.127Z,950.4
2019-03-13T04:16:37.238Z,950.4
2019-03-13T04:19:43.198Z,950.4
2019-03-13T04:22:49.207Z,950.4
2019-03-13T04:25:55.271Z,950.4
2019-03-13T04:29:01.178Z,950.5
2019-03-13T04:32:07.291Z,950.4
2019-03-13T04:35:13.309Z,950.4
2019-03-13T04:38:19.319Z,950.4
2019-03-13T04:41:25.382Z,950.5
2019-03-13T04:44:31.255Z,950.5
2019-03-13T04:47:37.292Z,950.5
2019-03-13T04:50:43.303Z,950.6
2019-03-13T04:53:49.370Z,950.6
2019-03-13T04:56:58.142Z,950.6
2019-03-13T05:00:04.105Z,950.5
2019-03-13T05:03:10.090Z,950.5
2019-03-13T05:06:15.989Z,950.5
2019-03-13T05:09:22.016Z,950.5
2019-03-13T05:12:28.000Z,950.6
2019-03-13T05:15:34.031Z,950.5
2019-03-13T05:18:40.020Z,950.5
2019-03-13T05:21:46.153Z,950.5
2019-03-13T05:24:52.221Z,950.5
2019-03-13T05:27:58.177Z,950.5
2019-03-13T05:31:04.231Z,950.5
2019-03-13T05:34:10.249Z,950.5
2019-03-13T05:37:19.108Z,950.6
2019-03-13T05:40:25.474Z,950.5
2019-03-13T05:43:31.487Z,950.6
2019-03-13T05:46:37.521Z,950.6
2019-03-13T05:49:43.444Z,950.6
2019-03-13T05:52:49.563Z,950.6
2019-03-13T05:55:55.519Z,950.6
2019-03-13T05:59:01.581Z,950.6
2019-03-13T06:02:07.487Z,950.6
2019-03-13T06:05:13.550Z,950.7
2019-03-13T06:08:19.929Z,950.7
2019-03-13T06:11:25.985Z,950.6
2019-03-13T06:14:31.943Z,950.8
2019-03-13T06:17:37.839Z,950.9
2019-03-13T06:20:43.865Z,951
2019-03-13T06:23:49.743Z,951.1
2019-03-13T06:26:55.679Z,951
2019-03-13T06:30:01.748Z,951
2019-03-13T06:33:07.708Z,951
2019-03-13T06:36:13.764Z,950.9
2019-03-13T06:39:19.765Z,950.9
2019-03-13T06:42:26.767Z,950.9
2019-03-13T06:45:32.791Z,950.9
2019-03-13T06:48:38.780Z,950.9
2019-03-13T06:51:45.655Z,950.8
2019-03-13T06:54:51.772Z,950.8
2019-03-13T06:57:57.742Z,950.6
2019-03-13T07:01:03.806Z,950.7
2019-03-13T07:04:09.728Z,950.7
2019-03-13T07:07:18.325Z,950.7
2019-03-13T07:10:24.380Z,950.8
2019-03-13T07:13:30.405Z,950.8
2019-03-13T07:16:36.468Z,950.9
2019-03-13T07:19:43.497Z,950.9
2019-03-13T07:22:49.498Z,950.8
2019-03-13T07:25:55.459Z,950.8
2019-03-13T07:29:13.560Z,950.8
2019-03-13T07:32:19.622Z,950.8
2019-03-13T07:35:25.547Z,950.8
2019-03-13T07:38:34.295Z,950.6
2019-03-13T07:41:43.075Z,950.6
2019-03-13T07:44:49.141Z,950.5
2019-03-13T07:47:55.098Z,950.6
2019-03-13T07:51:00.988Z,950.6
2019-03-13T07:54:14.133Z,950.5
2019-03-13T07:57:20.143Z,950.6
2019-03-13T08:00:26.213Z,950.6
2019-03-13T08:03:32.169Z,950.6
2019-03-13T08:06:39.161Z,950.5
2019-03-13T08:09:45.213Z,950.5
2019-03-13T08:12:51.272Z,950.6
2019-03-13T08:15:57.356Z,950.6
2019-03-13T08:19:03.301Z,950.6
2019-03-13T08:22:09.484Z,950.5
2019-03-13T08:25:15.742Z,950.5
2019-03-13T08:28:21.795Z,950.4
2019-03-13T08:31:27.959Z,950.4
2019-03-13T08:34:36.016Z,950.3
2019-03-13T08:37:43.309Z,950.2
2019-03-13T08:40:49.415Z,950.1
2019-03-13T08:43:55.502Z,950.1
2019-03-13T08:47:01.452Z,950
2019-03-13T08:50:07.432Z,950.1
2019-03-13T08:53:13.462Z,950
2019-03-13T08:56:19.934Z,950
2019-03-13T08:59:26.037Z,950
2019-03-13T09:02:32.265Z,950.1
2019-03-13T09:05:38.575Z,950
2019-03-13T09:08:44.473Z,950
2019-03-13T09:11:50.564Z,950
2019-03-13T09:14:56.770Z,949.9
2019-03-13T09:18:02.784Z,949.9
2019-03-13T09:21:09.047Z,949.8
2019-03-13T09:24:15.027Z,949.8
2019-03-13T09:27:20.984Z,949.7
2019-03-13T09:30:26.848Z,949.7
2019-03-13T09:33:32.891Z,949.7
2019-03-13T09:36:38.904Z,949.7
2019-03-13T09:39:44.926Z,949.7
2019-03-13T09:42:50.792Z,949.6
2019-03-13T09:45:56.947Z,949.7
2019-03-13T09:49:02.908Z,949.7
2019-03-13T09:52:08.767Z,949.7
2019-03-13T09:55:14.866Z,949.7
2019-03-13T09:58:20.774Z,949.7
2019-03-13T10:01:27.126Z,949.7
2019-03-13T10:04:33.033Z,949.6
2019-03-13T10:07:39.077Z,949.7
2019-03-13T10:10:45.063Z,949.7
2019-03-13T10:13:50.941Z,949.7
2019-03-13T10:17:12.033Z,949.6
2019-03-13T10:20:17.907Z,949.6
2019-03-13T10:23:25.002Z,949.6
2019-03-13T10:26:31.356Z,949.7
2019-03-13T10:29:39.055Z,949.6
2019-03-13T10:32:46.754Z,949.7
2019-03-13T10:35:53.986Z,949.6
2019-03-13T10:38:59.941Z,949.5
2019-03-13T10:42:05.820Z,949.5
2019-03-13T10:45:11.861Z,949.5
2019-03-13T10:48:17.985Z,949.4
2019-03-13T10:51:23.982Z,949.4
2019-03-13T10:54:30.093Z,949.4
2019-03-13T10:57:39.177Z,949.3
2019-03-13T11:00:45.298Z,949.3
2019-03-13T11:03:51.481Z,949.2
2019-03-13T11:06:57.470Z,949.1
2019-03-13T11:10:03.347Z,949.1
2019-03-13T11:13:09.300Z,949
2019-03-13T11:16:15.356Z,949
2019-03-13T11:19:21.583Z,948.9
2019-03-13T11:22:27.683Z,948.9
2019-03-13T11:25:34.916Z,948.9
2019-03-13T11:28:40.791Z,948.8
2019-03-13T11:31:46.845Z,948.8
2019-03-13T11:34:52.862Z,948.8
2019-03-13T11:37:59.126Z,948.6
2019-03-13T11:41:06.045Z,948.7
2019-03-13T11:44:12.295Z,948.6
2019-03-13T11:47:18.175Z,948.5
2019-03-13T11:50:24.197Z,948.5
2019-03-13T11:53:30.404Z,948.5
2019-03-13T11:56:36.731Z,948.6
2019-03-13T11:59:45.587Z,948.6
2019-03-13T12:02:51.634Z,948.5
2019-03-13T12:05:57.915Z,948.4
2019-03-13T12:09:03.979Z,948.4
2019-03-13T12:12:09.993Z,948.5
2019-03-13T12:15:16.977Z,948.4
2019-03-13T12:18:23.085Z,948.5
2019-03-13T12:21:30.252Z,948.4
2019-03-13T12:24:36.129Z,948.4
2019-03-13T12:27:44.706Z,948.3
2019-03-13T12:30:50.831Z,948.3
2019-03-13T12:33:56.831Z,948.4
2019-03-13T12:37:02.889Z,948.3
2019-03-13T12:40:09.124Z,948.3
2019-03-13T12:43:15.659Z,948.4
2019-03-13T12:46:21.763Z,948.4
2019-03-13T12:49:27.775Z,948.3
2019-03-13T12:52:33.741Z,948.3
2019-03-13T12:55:39.724Z,948.4
2019-03-13T12:58:45.878Z,948.3
2019-03-13T13:01:51.930Z,948.3
2019-03-13T13:04:57.881Z,948.3
2019-03-13T13:08:05.476Z,948.2
2019-03-13T13:11:11.633Z,948.3
2019-03-13T13:14:17.550Z,948.3
2019-03-13T13:17:24.660Z,948.3
2019-03-13T13:20:30.677Z,948.3
2019-03-13T13:23:36.684Z,948.3
2019-03-13T13:26:42.646Z,948.2
2019-03-13T13:29:51.982Z,948.2
2019-03-13T13:32:57.930Z,948.3
2019-03-13T13:36:04.004Z,948.2
2019-03-13T13:39:10.066Z,948.2
2019-03-13T13:42:16.227Z,948.1
2019-03-13T13:45:22.336Z,948.1
2019-03-13T13:48:28.403Z,948.1
2019-03-13T13:51:34.417Z,948
2019-03-13T13:54:40.302Z,948
2019-03-13T13:57:46.333Z,948
2019-03-13T14:00:52.392Z,948
2019-03-13T14:03:58.563Z,947.9
2019-03-13T14:07:04.447Z,948
2019-03-13T14:10:10.480Z,947.9
2019-03-13T14:13:16.542Z,947.9
2019-03-13T14:16:22.601Z,947.9
2019-03-13T14:19:28.718Z,947.8
2019-03-13T14:22:34.606Z,947.8
2019-03-13T14:25:40.786Z,947.8
2019-03-13T14:28:47.654Z,947.8
2019-03-13T14:31:53.751Z,947.8
2019-03-13T14:35:01.084Z,947.8
2019-03-13T14:38:07.102Z,947.8
2019-03-13T14:41:13.154Z,947.8
2019-03-13T14:44:19.053Z,947.7
2019-03-13T14:47:25.073Z,947.7
2019-03-13T14:50:30.964Z,947.8
2019-03-13T14:53:40.157Z,947.7
2019-03-13T14:56:46.124Z,947.7
2019-03-13T14:59:51.993Z,947.7
2019-03-13T15:02:58.035Z,947.7
2019-03-13T15:06:04.003Z,947.7
2019-03-13T15:09:10.065Z,947.7
2019-03-13T15:12:16.127Z,947.8
2019-03-13T15:15:21.997Z,947.8
2019-03-13T15:18:28.046Z,947.7
2019-03-13T15:21:33.915Z,947.7
2019-03-13T15:24:39.869Z,947.7
2019-03-13T15:27:45.749Z,947.7
2019-03-13T15:30:51.733Z,947.7
2019-03-13T15:33:57.768Z,947.6
2019-03-13T15:37:03.727Z,947.7
2019-03-13T15:40:09.886Z,947.8
2019-03-13T15:43:15.845Z,947.8
2019-03-13T15:46:21.879Z,947.7
2019-03-13T15:49:28.054Z,947.7
2019-03-13T15:52:34.002Z,947.7
2019-03-13T15:55:40.997Z,947.8
2019-03-13T15:58:46.875Z,947.8
2019-03-13T16:01:52.954Z,947.8
2019-03-13T16:04:58.899Z,947.8
2019-03-13T16:08:04.929Z,947.8
2019-03-13T16:11:10.823Z,947.8
2019-03-13T16:14:16.747Z,947.7
2019-03-13T16:17:22.706Z,947.7
2019-03-13T16:20:28.584Z,947.8
2019-03-13T16:23:34.623Z,947.7
2019-03-13T16:26:40.541Z,947.7
2019-03-13T16:29:46.540Z,947.7
2019-03-13T16:32:52.662Z,947.7
2019-03-13T16:35:58.588Z,947.8
2019-03-13T16:39:04.622Z,947.7
2019-03-13T16:42:10.508Z,947.7
2019-03-13T16:45:16.553Z,947.7
2019-03-13T16:48:22.705Z,947.7
2019-03-13T16:51:28.630Z,947.6
2019-03-13T16:54:34.631Z,947.6
2019-03-13T16:57:40.621Z,947.5
2019-03-13T17:00:46.670Z,947.6
2019-03-13T17:03:55.761Z,947.6
2019-03-13T17:07:01.950Z,947.6
2019-03-13T17:10:07.830Z,947.6
2019-03-13T17:13:13.872Z,947.6
2019-03-13T17:16:19.840Z,947.6
2019-03-13T17:19:25.786Z,947.6
2019-03-13T17:22:31.846Z,947.6
2019-03-13T17:25:37.813Z,947.6
2019-03-13T17:28:43.845Z,947.6
2019-03-13T17:31:53.311Z,947.7
2019-03-13T17:34:59.249Z,947.6
2019-03-13T17:38:05.327Z,947.7
2019-03-13T17:41:11.288Z,947.7
2019-03-13T17:44:17.246Z,947.8
2019-03-13T17:47:23.125Z,947.7
2019-03-13T17:50:29.216Z,947.7
2019-03-13T17:53:35.097Z,947.7
2019-03-13T17:56:41.390Z,947.7
2019-03-13T17:59:47.408Z,947.8
2019-03-13T18:02:53.425Z,947.8
2019-03-13T18:05:59.371Z,947.8
2019-03-13T18:09:05.539Z,947.7
2019-03-13T18:12:11.496Z,947.7
2019-03-13T18:15:17.374Z,947.7
2019-03-13T18:18:23.415Z,947.7
2019-03-13T18:21:29.375Z,947.7
2019-03-13T18:24:35.334Z,947.6
2019-03-13T18:27:41.294Z,947.7
2019-03-13T18:30:47.359Z,947.7
2019-03-13T18:33:53.263Z,947.6
2019-03-13T18:36:59.319Z,947.7
2019-03-13T18:40:05.343Z,947.7
2019-03-13T18:43:13.460Z,947.7
2019-03-13T18:46:22.479Z,947.7
2019-03-13T18:49:28.358Z,947.7
2019-03-13T18:52:34.316Z,947.6
2019-03-13T18:55:40.176Z,947.6
2019-03-13T18:58:46.121Z,947.7
2019-03-13T19:01:52.071Z,947.7
2019-03-13T19:04:59.055Z,947.8
2019-03-13T19:08:05.123Z,947.8
2019-03-13T19:11:10.999Z,947.9
2019-03-13T19:14:16.933Z,947.9
2019-03-13T19:17:22.997Z,947.8
2019-03-13T19:20:28.893Z,947.9
2019-03-13T19:23:35.119Z,948
2019-03-13T19:26:41.184Z,947.9
2019-03-13T19:29:47.110Z,947.9
2019-03-13T19:32:53.105Z,947.9
2019-03-13T19:35:58.982Z,947.9
2019-03-13T19:39:04.923Z,947.9
2019-03-13T19:42:10.891Z,947.9
2019-03-13T19:45:19.914Z,948
2019-03-13T19:48:25.884Z,948
2019-03-13T19:51:32.043Z,947.9
2019-03-13T19:54:38.022Z,947.8
2019-03-13T19:57:44.184Z,947.9
2019-03-13T20:00:50.081Z,947.8
2019-03-13T20:03:56.896Z,947.9
2019-03-13T20:07:02.888Z,947.8
2019-03-13T20:10:09.025Z,947.8
2019-03-13T20:13:15.190Z,947.8
2019-03-13T20:16:21.151Z,947.7
2019-03-13T20:19:27.030Z,947.7
2019-03-13T20:22:32.968Z,947.6
2019-03-13T20:25:39.049Z,947.6
2019-03-13T20:28:47.555Z,947.6
2019-03-13T20:31:53.513Z,947.5
2019-03-13T20:34:59.474Z,947.5
2019-03-13T20:38:05.639Z,947.5
2019-03-13T20:41:11.593Z,947.5
2019-03-13T20:44:17.483Z,947.6
2019-03-13T20:47:23.409Z,947.5
2019-03-13T20:50:38.846Z,947.6
2019-03-13T20:53:44.854Z,947.5
2019-03-13T20:56:50.813Z,947.6
2019-03-13T20:59:56.770Z,947.5
2019-03-13T21:03:02.831Z,947.5
2019-03-13T21:06:08.893Z,947.5
2019-03-13T21:09:14.770Z,947.5
2019-03-13T21:12:24.087Z,947.5
2019-03-13T21:15:33.025Z,947.5
2019-03-13T21:18:38.978Z,947.5
2019-03-13T21:21:44.936Z,947.5
2019-03-13T21:24:51.103Z,947.3
2019-03-13T21:27:57.068Z,947.2
2019-03-13T21:31:05.272Z,947.2
2019-03-13T21:34:11.234Z,947.1
2019-03-13T21:37:17.192Z,947.2
2019-03-13T21:40:23.254Z,947.3
2019-03-13T21:43:29.332Z,947.2
2019-03-13T21:46:35.282Z,947.2
2019-03-13T21:49:41.238Z,947.2
2019-03-13T21:52:47.308Z,947.2
2019-03-13T21:55:53.261Z,947.3
2019-03-13T21:59:02.143Z,947.2
2019-03-13T22:02:08.168Z,947.1
2019-03-13T22:05:28.095Z,947.3
2019-03-13T22:08:33.978Z,947.3
2019-03-13T22:11:39.953Z,947.2
2019-03-13T22:14:46.019Z,947.2
2019-03-13T22:17:51.957Z,947.1
2019-03-13T22:20:58.006Z,947.2
2019-03-13T22:24:03.896Z,947.2
2019-03-13T22:27:09.857Z,947.1
2019-03-13T22:30:19.200Z,947
2019-03-13T22:33:25.150Z,947.1
2019-03-13T22:36:31.112Z,947.1
2019-03-13T22:39:37.075Z,947.1
2019-03-13T22:42:42.957Z,947
2019-03-13T22:45:49.068Z,947
2019-03-13T22:48:59.659Z,947
2019-03-13T22:52:05.758Z,947
2019-03-13T22:55:11.724Z,947
2019-03-13T22:58:17.744Z,947
2019-03-13T23:01:27.185Z,947
2019-03-13T23:04:36.779Z,947.1
2019-03-13T23:07:42.688Z,947.1
2019-03-13T23:10:48.648Z,947.1
2019-03-13T23:13:54.526Z,947.1
2019-03-13T23:17:00.465Z,947
2019-03-13T23:20:06.493Z,947
2019-03-13T23:23:12.692Z,947
2019-03-13T23:26:18.654Z,947
2019-03-13T23:29:24.539Z,946.9
2019-03-13T23:32:30.404Z,946.9
2019-03-13T23:35:36.439Z,946.9
2019-03-13T23:38:42.491Z,946.9
2019-03-13T23:41:48.368Z,946.9
2019-03-13T23:44:56.047Z,946.8
2019-03-13T23:48:02.094Z,946.8
2019-03-13T23:51:08.375Z,946.8
2019-03-13T23:54:14.335Z,946.8
2019-03-13T23:57:20.705Z,946.8
